Stonewall, Canada
Current Conditions -  °F | °C
As of 12:00 PM on Wednesday 26 Nov 2014 (Local Time) from CYWG Reporting Station
Ice Pellets Ice Pellets  
Wind Chill: -22°   Ceiling: Unl
Heat Index: -6°   Visibility: 15mi
Dew Point: -15°   Wind: 9mph
Humidity: 65%   Direction: 340°NNW
Pressure: 30.5"   Gusts: NA
Location:  50.14°N, 97.32°W
Report Text: CYWG 261800Z 34008KT 15SM IC SKC M21/M26 A3050 RMK SLP356
Loading
Personal Weather Stations






























Interactive Weather Map New forecast layout! Learn more

10-Day Weather Forecast

Advertisements
Track Severe Weather on mobile